Airfield :
LOGIN :

Register | Disclaimer

   EN    FR    IT 

 










Legend :    VFR   Marginal VFR   IFR   Intensive IFR   Very Intensive IFR
Visi :
Ceiling :
>= 8 km
>= 3000ft
5 to 8 km
1000 to 3000 ft
1500m to 5 km
500 to 1000 ft
800 to 1500m
200 to 500 ft
< 800m
< 200 ft
Symbols :   Thunderstorms  Fog  Heavy snow  Heavy precipitations  Wind > 20 kt
SIGMETs :     Misc.  Thunderstorms  Icing  Turbulence  Mountain Waves  Volcanic Ashes







- Airport Elevation : 277 ft
- IATA code : JER
- Download approach charts


EGJJ - Jersey

CURRENT METAR :
  • 242120Z AUTO 02006KT 350V050 9999 NCD 14/13 Q1018 REDZ

EXPIRED METARs :
  • 242050Z AUTO 02008KT 9999 NCD 14/13 Q1017 RERA
  • 242020Z AUTO 02008KT 9999 NCD 14/13 Q1017 RESHRA
  • 241950Z 04006KT 010V070 9999 -SHRA FEW030 14/13 Q1018 RESHRA
  • 241920Z 04006KT 9000 SHRA FEW030 15/14 Q1018
  • 241850Z 04007KT 9999 -SHRA FEW043 15/14 Q1018

TAF TAF EGJJ
Valid from the 24 at 21:00 until the 25 at 06:00 UTC


242003Z 2421/2506 01007KT 9999 FEW004 SCT040
TEMPO 2421/2504 6000 SHRA BKN003
PROB40
TEMPO 2421/2506 0400 FG BKN000
PROB40
TEMPO 2421/2502 2000 +TSRA BKN050CB
ATIS : +44 1534 498 073
No reported NOTAMs for that airfield.
2 SIGMETs reported for the Brest FIR (LFRR) :
 
Embedded thunderstorms and hail
LFRR SIGMET 8 VALID 242300/250300 LFPW
LFRR BREST FIR/UIR EMBD TSGR FCST WI N5000 W00215 - N5000 W00200 - N5000 W00015 - N4830 W00015 - N4830 W00145 - N5000 W00215 TOP FL380 MOV NE 20KT NC=
Embedded thunderstorms and hail
LFRR SIGMET 7 VALID 241900/242300 LFPW
LFRR BREST FIR/UIR EMBD TSGR FCST WI N4915 W00015 - N4715 W00015 - N4815 W00145 - N4915 W00015 TOP FL360 MOV N 20KT INTSF=



MET'MAP, your aeronautical weather chart ! - Copyright ORBIFLY December 2007 - Disclaimer

ORBIFLY MET'MAP TEAM :

Programming & Development : Alexandra Zaïnal
Concept & Development : Baudouin d'Aumeries
Co-Development & Prog : Marc-Olivier Méhu
Technical & hardware support : Manuel Goepfert

Contact : metmap@orbifly.com




SOURCES & CREDITS :

   NOAA